sensor_id;sensor_type;location;lat;lon;timestamp;P1;durP1;ratioP1;P2;durP2;ratioP2
45366;SDS011;31100;55.848;37.636;2023-06-10T00:01:47;4.63;;;2.53;;
45366;SDS011;31100;55.848;37.636;2023-06-10T00:04:13;6.78;;;2.63;;
45366;SDS011;31100;55.848;37.636;2023-06-10T00:06:40;3.88;;;2.75;;
45366;SDS011;31100;55.848;37.636;2023-06-10T00:09:06;5.25;;;2.67;;
45366;SDS011;31100;55.848;37.636;2023-06-10T00:11:35;5.47;;;2.83;;
45366;SDS011;31100;55.848;37.636;2023-06-10T00:14:04;4.90;;;2.75;;
45366;SDS011;31100;55.848;37.636;2023-06-10T00:16:29;4.22;;;2.70;;
45366;SDS011;31100;55.848;37.636;2023-06-10T00:18:55;4.38;;;2.67;;
45366;SDS011;31100;55.848;37.636;2023-06-10T00:21:25;4.47;;;2.90;;
45366;SDS011;31100;55.848;37.636;2023-06-10T00:23:51;5.82;;;2.80;;
45366;SDS011;31100;55.848;37.636;2023-06-10T00:26:17;6.25;;;2.75;;
45366;SDS011;31100;55.848;37.636;2023-06-10T00:28:42;5.03;;;2.55;;
45366;SDS011;31100;55.848;37.636;2023-06-10T00:31:10;6.32;;;3.50;;
45366;SDS011;31100;55.848;37.636;2023-06-10T00:33:35;6.72;;;2.72;;
45366;SDS011;31100;55.848;37.636;2023-06-10T00:36:01;5.55;;;3.03;;
45366;SDS011;31100;55.848;37.636;2023-06-10T00:38:26;4.47;;;3.13;;
45366;SDS011;31100;55.848;37.636;2023-06-10T00:40:52;6.60;;;2.90;;
45366;SDS011;31100;55.848;37.636;2023-06-10T00:43:17;5.68;;;3.10;;
45366;SDS011;31100;55.848;37.636;2023-06-10T00:45:43;4.50;;;2.92;;
45366;SDS011;31100;55.848;37.636;2023-06-10T00:48:08;8.05;;;3.00;;
45366;SDS011;31100;55.848;37.636;2023-06-10T00:50:34;5.20;;;3.33;;
45366;SDS011;31100;55.848;37.636;2023-06-10T00:53:04;6.63;;;3.25;;
45366;SDS011;31100;55.848;37.636;2023-06-10T00:55:30;6.43;;;3.35;;
45366;SDS011;31100;55.848;37.636;2023-06-10T00:57:57;4.82;;;3.15;;
45366;SDS011;31100;55.848;37.636;2023-06-10T01:00:23;4.95;;;3.20;;
45366;SDS011;31100;55.848;37.636;2023-06-10T01:02:48;4.07;;;2.78;;
45366;SDS011;31100;55.848;37.636;2023-06-10T01:05:14;4.82;;;2.88;;
45366;SDS011;31100;55.848;37.636;2023-06-10T01:07:43;8.38;;;3.00;;
45366;SDS011;31100;55.848;37.636;2023-06-10T01:12:45;6.50;;;3.33;;
45366;SDS011;31100;55.848;37.636;2023-06-10T01:15:16;5.13;;;3.40;;
45366;SDS011;31100;55.848;37.636;2023-06-10T01:17:57;5.30;;;2.75;;
45366;SDS011;31100;55.848;37.636;2023-06-10T01:20:31;5.03;;;2.95;;
45366;SDS011;31100;55.848;37.636;2023-06-10T01:22:58;5.47;;;3.15;;
45366;SDS011;31100;55.848;37.636;2023-06-10T01:25:24;6.72;;;3.38;;
45366;SDS011;31100;55.848;37.636;2023-06-10T01:30:55;4.90;;;3.17;;
45366;SDS011;31100;55.848;37.636;2023-06-10T01:33:37;5.15;;;3.40;;
45366;SDS011;31100;55.848;37.636;2023-06-10T01:36:05;4.93;;;2.97;;
45366;SDS011;31100;55.848;37.636;2023-06-10T01:38:32;7.88;;;3.10;;
45366;SDS011;31100;55.848;37.636;2023-06-10T01:41:02;4.30;;;2.90;;
45366;SDS011;31100;55.848;37.636;2023-06-10T01:43:28;5.72;;;2.80;;
45366;SDS011;31100;55.848;37.636;2023-06-10T01:45:54;5.65;;;2.92;;
45366;SDS011;31100;55.848;37.636;2023-06-10T01:48:19;5.15;;;3.00;;
45366;SDS011;31100;55.848;37.636;2023-06-10T01:50:45;5.18;;;3.17;;
45366;SDS011;31100;55.848;37.636;2023-06-10T01:53:10;5.45;;;2.50;;
45366;SDS011;31100;55.848;37.636;2023-06-10T01:55:36;7.28;;;2.45;;
45366;SDS011;31100;55.848;37.636;2023-06-10T01:58:01;5.43;;;2.78;;
45366;SDS011;31100;55.848;37.636;2023-06-10T02:00:27;3.80;;;2.60;;
45366;SDS011;31100;55.848;37.636;2023-06-10T02:02:53;4.53;;;2.60;;
45366;SDS011;31100;55.848;37.636;2023-06-10T02:05:18;4.90;;;2.78;;
45366;SDS011;31100;55.848;37.636;2023-06-10T02:07:44;6.50;;;2.67;;
45366;SDS011;31100;55.848;37.636;2023-06-10T02:10:09;4.38;;;2.45;;
45366;SDS011;31100;55.848;37.636;2023-06-10T02:12:35;4.90;;;2.50;;
45366;SDS011;31100;55.848;37.636;2023-06-10T02:15:00;3.38;;;2.50;;
45366;SDS011;31100;55.848;37.636;2023-06-10T02:17:26;5.45;;;2.60;;
45366;SDS011;31100;55.848;37.636;2023-06-10T02:19:51;4.13;;;2.33;;
45366;SDS011;31100;55.848;37.636;2023-06-10T02:22:21;3.60;;;2.28;;
45366;SDS011;31100;55.848;37.636;2023-06-10T02:24:48;5.07;;;2.33;;
45366;SDS011;31100;55.848;37.636;2023-06-10T02:27:14;3.72;;;2.13;;
45366;SDS011;31100;55.848;37.636;2023-06-10T02:29:40;4.32;;;2.22;;
45366;SDS011;31100;55.848;37.636;2023-06-10T02:32:06;4.25;;;2.28;;
45366;SDS011;31100;55.848;37.636;2023-06-10T02:34:32;5.15;;;1.98;;
45366;SDS011;31100;55.848;37.636;2023-06-10T02:36:58;4.68;;;2.63;;
45366;SDS011;31100;55.848;37.636;2023-06-10T02:39:24;5.47;;;2.42;;
45366;SDS011;31100;55.848;37.636;2023-06-10T02:41:50;3.30;;;2.00;;
45366;SDS011;31100;55.848;37.636;2023-06-10T02:44:17;5.13;;;2.28;;
45366;SDS011;31100;55.848;37.636;2023-06-10T02:46:43;5.15;;;2.30;;
45366;SDS011;31100;55.848;37.636;2023-06-10T02:49:09;3.65;;;1.98;;
45366;SDS011;31100;55.848;37.636;2023-06-10T02:51:34;4.85;;;2.20;;
45366;SDS011;31100;55.848;37.636;2023-06-10T02:54:01;5.45;;;2.20;;
45366;SDS011;31100;55.848;37.636;2023-06-10T02:56:26;3.75;;;1.95;;
45366;SDS011;31100;55.848;37.636;2023-06-10T02:58:52;5.18;;;2.00;;
45366;SDS011;31100;55.848;37.636;2023-06-10T03:01:17;5.35;;;2.30;;
45366;SDS011;31100;55.848;37.636;2023-06-10T03:03:44;3.65;;;1.92;;
45366;SDS011;31100;55.848;37.636;2023-06-10T03:06:12;3.30;;;2.00;;
45366;SDS011;31100;55.848;37.636;2023-06-10T03:08:39;3.95;;;1.92;;
45366;SDS011;31100;55.848;37.636;2023-06-10T03:11:05;4.55;;;2.08;;
45366;SDS011;31100;55.848;37.636;2023-06-10T03:13:31;2.78;;;1.83;;
45366;SDS011;31100;55.848;37.636;2023-06-10T03:15:57;6.80;;;2.10;;
45366;SDS011;31100;55.848;37.636;2023-06-10T03:18:25;4.47;;;1.55;;
45366;SDS011;31100;55.848;37.636;2023-06-10T03:20:51;3.72;;;2.08;;
45366;SDS011;31100;55.848;37.636;2023-06-10T03:23:17;3.58;;;1.73;;
45366;SDS011;31100;55.848;37.636;2023-06-10T03:25:43;2.67;;;1.52;;
45366;SDS011;31100;55.848;37.636;2023-06-10T03:28:09;4.10;;;1.55;;
45366;SDS011;31100;55.848;37.636;2023-06-10T03:30:35;3.70;;;1.70;;
45366;SDS011;31100;55.848;37.636;2023-06-10T03:33:00;4.30;;;1.50;;
45366;SDS011;31100;55.848;37.636;2023-06-10T03:35:26;2.80;;;1.70;;
45366;SDS011;31100;55.848;37.636;2023-06-10T03:37:51;7.75;;;1.67;;
45366;SDS011;31100;55.848;37.636;2023-06-10T03:40:17;3.38;;;1.70;;
45366;SDS011;31100;55.848;37.636;2023-06-10T03:42:42;4.35;;;1.55;;
45366;SDS011;31100;55.848;37.636;2023-06-10T03:45:09;3.13;;;1.45;;
45366;SDS011;31100;55.848;37.636;2023-06-10T03:47:35;4.43;;;1.70;;
45366;SDS011;31100;55.848;37.636;2023-06-10T03:50:01;3.25;;;1.48;;
45366;SDS011;31100;55.848;37.636;2023-06-10T03:52:28;4.15;;;1.50;;
45366;SDS011;31100;55.848;37.636;2023-06-10T03:54:54;4.75;;;1.40;;
45366;SDS011;31100;55.848;37.636;2023-06-10T03:57:19;3.05;;;1.52;;
45366;SDS011;31100;55.848;37.636;2023-06-10T03:59:45;3.60;;;1.27;;
45366;SDS011;31100;55.848;37.636;2023-06-10T04:02:10;6.07;;;1.60;;
45366;SDS011;31100;55.848;37.636;2023-06-10T04:04:36;2.80;;;1.50;;
45366;SDS011;31100;55.848;37.636;2023-06-10T04:07:03;4.25;;;1.63;;
45366;SDS011;31100;55.848;37.636;2023-06-10T04:09:29;3.13;;;1.27;;
45366;SDS011;31100;55.848;37.636;2023-06-10T04:11:55;2.97;;;1.40;;
45366;SDS011;31100;55.848;37.636;2023-06-10T04:14:20;3.40;;;1.30;;
45366;SDS011;31100;55.848;37.636;2023-06-10T04:16:46;3.20;;;1.50;;
45366;SDS011;31100;55.848;37.636;2023-06-10T04:19:11;4.50;;;1.42;;
45366;SDS011;31100;55.848;37.636;2023-06-10T04:21:37;4.22;;;1.30;;
45366;SDS011;31100;55.848;37.636;2023-06-10T04:24:02;3.22;;;1.30;;
45366;SDS011;31100;55.848;37.636;2023-06-10T04:26:28;3.20;;;1.60;;
45366;SDS011;31100;55.848;37.636;2023-06-10T04:28:54;3.95;;;1.25;;
45366;SDS011;31100;55.848;37.636;2023-06-10T04:31:19;2.78;;;1.17;;
45366;SDS011;31100;55.848;37.636;2023-06-10T04:33:45;3.90;;;1.40;;
45366;SDS011;31100;55.848;37.636;2023-06-10T04:36:11;6.45;;;1.23;;
45366;SDS011;31100;55.848;37.636;2023-06-10T04:38:36;3.17;;;1.30;;
45366;SDS011;31100;55.848;37.636;2023-06-10T04:41:02;8.52;;;2.30;;
45366;SDS011;31100;55.848;37.636;2023-06-10T04:43:28;4.80;;;2.03;;
45366;SDS011;31100;55.848;37.636;2023-06-10T04:45:54;4.05;;;1.30;;
45366;SDS011;31100;55.848;37.636;2023-06-10T04:48:20;6.32;;;1.63;;
45366;SDS011;31100;55.848;37.636;2023-06-10T04:50:46;2.83;;;1.42;;
45366;SDS011;31100;55.848;37.636;2023-06-10T04:53:11;3.67;;;1.15;;
45366;SDS011;31100;55.848;37.636;2023-06-10T04:55:37;2.83;;;1.40;;
45366;SDS011;31100;55.848;37.636;2023-06-10T04:58:02;2.70;;;1.30;;
45366;SDS011;31100;55.848;37.636;2023-06-10T05:00:28;6.18;;;1.58;;
45366;SDS011;31100;55.848;37.636;2023-06-10T05:02:53;5.50;;;2.20;;
45366;SDS011;31100;55.848;37.636;2023-06-10T05:05:21;4.60;;;1.10;;
45366;SDS011;31100;55.848;37.636;2023-06-10T05:07:47;2.63;;;1.33;;
45366;SDS011;31100;55.848;37.636;2023-06-10T05:10:12;3.30;;;1.27;;
45366;SDS011;31100;55.848;37.636;2023-06-10T05:12:38;3.58;;;1.35;;
45366;SDS011;31100;55.848;37.636;2023-06-10T05:15:05;4.15;;;1.27;;
45366;SDS011;31100;55.848;37.636;2023-06-10T05:17:31;4.03;;;1.30;;
45366;SDS011;31100;55.848;37.636;2023-06-10T05:19:57;4.60;;;1.35;;
45366;SDS011;31100;55.848;37.636;2023-06-10T05:22:23;3.88;;;1.10;;
45366;SDS011;31100;55.848;37.636;2023-06-10T05:24:52;3.53;;;1.30;;
45366;SDS011;31100;55.848;37.636;2023-06-10T05:27:18;2.95;;;1.17;;
45366;SDS011;31100;55.848;37.636;2023-06-10T05:29:43;3.53;;;1.17;;
45366;SDS011;31100;55.848;37.636;2023-06-10T05:32:10;3.33;;;1.23;;
45366;SDS011;31100;55.848;37.636;2023-06-10T05:34:36;4.05;;;1.30;;
45366;SDS011;31100;55.848;37.636;2023-06-10T05:37:02;3.03;;;1.20;;
45366;SDS011;31100;55.848;37.636;2023-06-10T05:39:28;7.45;;;2.10;;
45366;SDS011;31100;55.848;37.636;2023-06-10T05:41:53;2.20;;;1.02;;
45366;SDS011;31100;55.848;37.636;2023-06-10T05:44:19;2.33;;;1.20;;
45366;SDS011;31100;55.848;37.636;2023-06-10T05:46:44;3.67;;;1.20;;
45366;SDS011;31100;55.848;37.636;2023-06-10T05:49:10;2.15;;;0.98;;
45366;SDS011;31100;55.848;37.636;2023-06-10T05:51:35;2.72;;;1.10;;
45366;SDS011;31100;55.848;37.636;2023-06-10T05:54:02;2.17;;;1.05;;
45366;SDS011;31100;55.848;37.636;2023-06-10T05:56:27;2.88;;;0.90;;
45366;SDS011;31100;55.848;37.636;2023-06-10T05:58:53;4.55;;;1.15;;
45366;SDS011;31100;55.848;37.636;2023-06-10T06:01:18;2.40;;;0.88;;
45366;SDS011;31100;55.848;37.636;2023-06-10T06:03:45;6.05;;;1.20;;
45366;SDS011;31100;55.848;37.636;2023-06-10T06:06:11;4.35;;;1.20;;
45366;SDS011;31100;55.848;37.636;2023-06-10T06:08:36;2.85;;;1.10;;
45366;SDS011;31100;55.848;37.636;2023-06-10T06:11:02;3.45;;;1.30;;
45366;SDS011;31100;55.848;37.636;2023-06-10T06:13:27;3.47;;;1.13;;
45366;SDS011;31100;55.848;37.636;2023-06-10T06:15:53;3.25;;;1.42;;
45366;SDS011;31100;55.848;37.636;2023-06-10T06:18:18;3.67;;;1.10;;
45366;SDS011;31100;55.848;37.636;2023-06-10T06:20:44;1.77;;;1.00;;
45366;SDS011;31100;55.848;37.636;2023-06-10T06:23:09;2.30;;;1.10;;
45366;SDS011;31100;55.848;37.636;2023-06-10T06:25:35;4.30;;;1.05;;
45366;SDS011;31100;55.848;37.636;2023-06-10T06:28:04;2.40;;;1.00;;
45366;SDS011;31100;55.848;37.636;2023-06-10T06:30:31;2.20;;;1.00;;
45366;SDS011;31100;55.848;37.636;2023-06-10T06:32:56;3.33;;;1.05;;
45366;SDS011;31100;55.848;37.636;2023-06-10T06:35:22;5.85;;;1.27;;
45366;SDS011;31100;55.848;37.636;2023-06-10T06:37:47;3.45;;;1.02;;
45366;SDS011;31100;55.848;37.636;2023-06-10T06:40:13;4.90;;;1.33;;
45366;SDS011;31100;55.848;37.636;2023-06-10T06:42:39;2.85;;;1.20;;
45366;SDS011;31100;55.848;37.636;2023-06-10T06:45:04;2.88;;;1.10;;
45366;SDS011;31100;55.848;37.636;2023-06-10T06:47:30;2.50;;;0.80;;
45366;SDS011;31100;55.848;37.636;2023-06-10T06:49:56;2.53;;;1.00;;
45366;SDS011;31100;55.848;37.636;2023-06-10T06:52:21;2.33;;;0.80;;
45366;SDS011;31100;55.848;37.636;2023-06-10T06:54:47;4.47;;;0.80;;
45366;SDS011;31100;55.848;37.636;2023-06-10T06:57:13;4.72;;;0.90;;
45366;SDS011;31100;55.848;37.636;2023-06-10T06:59:38;2.13;;;0.93;;
45366;SDS011;31100;55.848;37.636;2023-06-10T07:02:04;4.40;;;1.05;;
45366;SDS011;31100;55.848;37.636;2023-06-10T07:04:29;6.35;;;1.95;;
45366;SDS011;31100;55.848;37.636;2023-06-10T07:06:55;2.88;;;0.80;;
45366;SDS011;31100;55.848;37.636;2023-06-10T07:09:24;1.77;;;0.95;;
45366;SDS011;31100;55.848;37.636;2023-06-10T07:11:49;3.47;;;0.93;;
45366;SDS011;31100;55.848;37.636;2023-06-10T07:14:15;3.10;;;0.90;;
45366;SDS011;31100;55.848;37.636;2023-06-10T07:16:41;2.50;;;0.98;;
45366;SDS011;31100;55.848;37.636;2023-06-10T07:19:06;5.15;;;1.38;;
45366;SDS011;31100;55.848;37.636;2023-06-10T07:21:32;4.65;;;0.85;;
45366;SDS011;31100;55.848;37.636;2023-06-10T07:23:58;2.30;;;0.88;;
45366;SDS011;31100;55.848;37.636;2023-06-10T07:26:24;3.38;;;0.82;;
45366;SDS011;31100;55.848;37.636;2023-06-10T07:28:53;1.73;;;0.80;;
45366;SDS011;31100;55.848;37.636;2023-06-10T07:31:20;3.45;;;0.90;;
45366;SDS011;31100;55.848;37.636;2023-06-10T07:33:46;3.25;;;0.80;;
45366;SDS011;31100;55.848;37.636;2023-06-10T07:36:12;5.75;;;0.80;;
45366;SDS011;31100;55.848;37.636;2023-06-10T07:38:38;1.75;;;0.70;;
45366;SDS011;31100;55.848;37.636;2023-06-10T07:41:03;2.35;;;0.80;;
45366;SDS011;31100;55.848;37.636;2023-06-10T07:43:29;2.28;;;0.90;;
45366;SDS011;31100;55.848;37.636;2023-06-10T07:45:55;5.38;;;1.15;;
45366;SDS011;31100;55.848;37.636;2023-06-10T07:48:20;4.15;;;1.10;;
45366;SDS011;31100;55.848;37.636;2023-06-10T07:50:46;6.65;;;1.30;;
45366;SDS011;31100;55.848;37.636;2023-06-10T07:53:11;3.53;;;0.90;;
45366;SDS011;31100;55.848;37.636;2023-06-10T07:55:36;3.08;;;0.98;;
45366;SDS011;31100;55.848;37.636;2023-06-10T07:58:02;2.10;;;0.80;;
45366;SDS011;31100;55.848;37.636;2023-06-10T08:00:27;3.00;;;0.80;;
45366;SDS011;31100;55.848;37.636;2023-06-10T08:02:53;1.92;;;0.90;;
45366;SDS011;31100;55.848;37.636;2023-06-10T08:05:18;4.07;;;0.90;;
45366;SDS011;31100;55.848;37.636;2023-06-10T08:07:45;3.85;;;0.70;;
45366;SDS011;31100;55.848;37.636;2023-06-10T08:10:10;2.67;;;1.02;;
45366;SDS011;31100;55.848;37.636;2023-06-10T08:12:36;2.13;;;0.90;;
45366;SDS011;31100;55.848;37.636;2023-06-10T08:15:02;2.15;;;0.80;;
45366;SDS011;31100;55.848;37.636;2023-06-10T08:17:30;0.93;;;0.57;;
45366;SDS011;31100;55.848;37.636;2023-06-10T08:19:55;2.30;;;0.82;;
45366;SDS011;31100;55.848;37.636;2023-06-10T08:22:21;1.80;;;0.70;;
45366;SDS011;31100;55.848;37.636;2023-06-10T08:24:47;4.30;;;0.60;;
45366;SDS011;31100;55.848;37.636;2023-06-10T08:27:12;1.70;;;0.68;;
45366;SDS011;31100;55.848;37.636;2023-06-10T08:29:38;1.98;;;0.90;;
45366;SDS011;31100;55.848;37.636;2023-06-10T08:32:04;4.05;;;0.98;;
45366;SDS011;31100;55.848;37.636;2023-06-10T08:34:30;3.33;;;0.98;;
45366;SDS011;31100;55.848;37.636;2023-06-10T08:36:58;5.85;;;0.90;;
45366;SDS011;31100;55.848;37.636;2023-06-10T08:39:23;5.78;;;0.80;;
45366;SDS011;31100;55.848;37.636;2023-06-10T08:41:59;3.60;;;0.80;;
45366;SDS011;31100;55.848;37.636;2023-06-10T08:44:32;4.00;;;0.80;;
45366;SDS011;31100;55.848;37.636;2023-06-10T08:47:03;3.00;;;0.80;;
45366;SDS011;31100;55.848;37.636;2023-06-10T08:49:34;3.50;;;0.68;;
45366;SDS011;31100;55.848;37.636;2023-06-10T08:52:04;3.13;;;1.00;;
45366;SDS011;31100;55.848;37.636;2023-06-10T08:54:34;3.05;;;0.75;;
45366;SDS011;31100;55.848;37.636;2023-06-10T08:57:03;2.85;;;0.70;;
45366;SDS011;31100;55.848;37.636;2023-06-10T08:59:31;2.25;;;0.70;;
45366;SDS011;31100;55.848;37.636;2023-06-10T09:01:56;3.10;;;0.70;;
45366;SDS011;31100;55.848;37.636;2023-06-10T09:04:24;3.67;;;0.90;;
45366;SDS011;31100;55.848;37.636;2023-06-10T09:06:49;3.22;;;1.00;;
45366;SDS011;31100;55.848;37.636;2023-06-10T09:09:15;5.40;;;0.90;;
45366;SDS011;31100;55.848;37.636;2023-06-10T09:11:42;3.50;;;0.90;;
45366;SDS011;31100;55.848;37.636;2023-06-10T09:14:07;4.20;;;1.05;;
45366;SDS011;31100;55.848;37.636;2023-06-10T09:16:33;2.72;;;0.65;;
45366;SDS011;31100;55.848;37.636;2023-06-10T09:18:59;3.40;;;1.17;;
45366;SDS011;31100;55.848;37.636;2023-06-10T09:21:25;3.92;;;0.88;;
45366;SDS011;31100;55.848;37.636;2023-06-10T09:23:50;3.70;;;0.80;;
45366;SDS011;31100;55.848;37.636;2023-06-10T09:26:16;3.67;;;0.98;;
45366;SDS011;31100;55.848;37.636;2023-06-10T09:28:49;2.75;;;0.90;;
45366;SDS011;31100;55.848;37.636;2023-06-10T09:31:15;3.40;;;0.80;;
45366;SDS011;31100;55.848;37.636;2023-06-10T09:33:43;4.13;;;1.10;;
45366;SDS011;31100;55.848;37.636;2023-06-10T09:36:09;3.83;;;0.93;;
45366;SDS011;31100;55.848;37.636;2023-06-10T09:38:35;1.98;;;0.70;;
45366;SDS011;31100;55.848;37.636;2023-06-10T09:41:02;3.33;;;0.77;;
45366;SDS011;31100;55.848;37.636;2023-06-10T09:43:41;2.03;;;0.88;;
45366;SDS011;31100;55.848;37.636;2023-06-10T09:46:17;2.55;;;0.80;;
45366;SDS011;31100;55.848;37.636;2023-06-10T09:48:43;3.72;;;0.90;;
45366;SDS011;31100;55.848;37.636;2023-06-10T09:51:12;3.80;;;1.00;;
45366;SDS011;31100;55.848;37.636;2023-06-10T09:53:39;2.78;;;0.75;;
45366;SDS011;31100;55.848;37.636;2023-06-10T09:56:05;3.85;;;0.90;;
45366;SDS011;31100;55.848;37.636;2023-06-10T10:01:09;2.65;;;0.95;;
45366;SDS011;31100;55.848;37.636;2023-06-10T10:03:49;2.47;;;0.80;;
45366;SDS011;31100;55.848;37.636;2023-06-10T10:06:16;2.33;;;0.82;;
45366;SDS011;31100;55.848;37.636;2023-06-10T10:08:42;3.50;;;1.30;;
45366;SDS011;31100;55.848;37.636;2023-06-10T10:11:08;3.25;;;0.70;;
45366;SDS011;31100;55.848;37.636;2023-06-10T10:13:35;2.17;;;0.60;;
45366;SDS011;31100;55.848;37.636;2023-06-10T10:16:04;6.20;;;3.17;;
45366;SDS011;31100;55.848;37.636;2023-06-10T10:18:35;3.78;;;0.77;;
45366;SDS011;31100;55.848;37.636;2023-06-10T10:21:05;3.53;;;0.80;;
45366;SDS011;31100;55.848;37.636;2023-06-10T10:23:34;1.58;;;0.70;;
45366;SDS011;31100;55.848;37.636;2023-06-10T10:26:09;3.00;;;0.90;;
45366;SDS011;31100;55.848;37.636;2023-06-10T10:28:45;2.63;;;0.90;;
45366;SDS011;31100;55.848;37.636;2023-06-10T10:31:16;1.73;;;0.75;;
45366;SDS011;31100;55.848;37.636;2023-06-10T10:36:24;5.15;;;1.08;;
45366;SDS011;31100;55.848;37.636;2023-06-10T10:38:51;4.00;;;1.35;;
45366;SDS011;31100;55.848;37.636;2023-06-10T10:41:16;1.70;;;0.70;;
45366;SDS011;31100;55.848;37.636;2023-06-10T10:43:43;2.17;;;0.80;;
45366;SDS011;31100;55.848;37.636;2023-06-10T10:46:14;2.38;;;0.80;;
45366;SDS011;31100;55.848;37.636;2023-06-10T10:48:42;3.60;;;0.80;;
45366;SDS011;31100;55.848;37.636;2023-06-10T10:51:08;1.92;;;0.85;;
45366;SDS011;31100;55.848;37.636;2023-06-10T10:53:34;4.85;;;0.80;;
45366;SDS011;31100;55.848;37.636;2023-06-10T10:56:12;4.50;;;0.82;;
45366;SDS011;31100;55.848;37.636;2023-06-10T10:58:39;1.42;;;0.70;;
45366;SDS011;31100;55.848;37.636;2023-06-10T11:01:13;2.97;;;0.68;;
45366;SDS011;31100;55.848;37.636;2023-06-10T11:03:45;4.20;;;0.90;;
45366;SDS011;31100;55.848;37.636;2023-06-10T11:06:12;1.85;;;0.60;;
45366;SDS011;31100;55.848;37.636;2023-06-10T11:11:18;5.28;;;0.75;;
45366;SDS011;31100;55.848;37.636;2023-06-10T11:16:29;4.28;;;0.77;;
45366;SDS011;31100;55.848;37.636;2023-06-10T11:18:55;3.83;;;0.80;;
45366;SDS011;31100;55.848;37.636;2023-06-10T11:21:22;2.33;;;0.60;;
45366;SDS011;31100;55.848;37.636;2023-06-10T11:23:48;2.95;;;0.80;;
45366;SDS011;31100;55.848;37.636;2023-06-10T11:26:16;2.15;;;0.80;;
45366;SDS011;31100;55.848;37.636;2023-06-10T11:31:23;4.25;;;1.23;;
45366;SDS011;31100;55.848;37.636;2023-06-10T11:34:02;2.70;;;0.70;;
45366;SDS011;31100;55.848;37.636;2023-06-10T11:36:30;1.90;;;0.60;;
45366;SDS011;31100;55.848;37.636;2023-06-10T11:38:57;1.85;;;0.77;;
45366;SDS011;31100;55.848;37.636;2023-06-10T11:41:27;2.90;;;0.80;;
45366;SDS011;31100;55.848;37.636;2023-06-10T11:43:54;2.08;;;0.80;;
45366;SDS011;31100;55.848;37.636;2023-06-10T11:46:23;2.80;;;0.77;;
45366;SDS011;31100;55.848;37.636;2023-06-10T11:48:52;1.98;;;0.70;;
45366;SDS011;31100;55.848;37.636;2023-06-10T11:51:18;4.00;;;1.15;;
45366;SDS011;31100;55.848;37.636;2023-06-10T11:53:45;2.10;;;0.77;;
45366;SDS011;31100;55.848;37.636;2023-06-10T11:56:11;3.25;;;0.90;;
45366;SDS011;31100;55.848;37.636;2023-06-10T11:58:36;1.65;;;0.73;;
45366;SDS011;31100;55.848;37.636;2023-06-10T12:01:02;3.55;;;0.80;;
45366;SDS011;31100;55.848;37.636;2023-06-10T12:03:35;4.13;;;0.73;;
45366;SDS011;31100;55.848;37.636;2023-06-10T12:06:03;2.47;;;1.02;;
45366;SDS011;31100;55.848;37.636;2023-06-10T12:08:29;2.78;;;0.73;;
45366;SDS011;31100;55.848;37.636;2023-06-10T12:10:55;5.90;;;1.00;;
45366;SDS011;31100;55.848;37.636;2023-06-10T12:13:21;2.70;;;0.93;;
45366;SDS011;31100;55.848;37.636;2023-06-10T12:15:49;6.72;;;1.45;;
45366;SDS011;31100;55.848;37.636;2023-06-10T12:18:21;2.72;;;0.82;;
45366;SDS011;31100;55.848;37.636;2023-06-10T12:20:48;3.40;;;0.80;;
45366;SDS011;31100;55.848;37.636;2023-06-10T12:23:14;3.35;;;0.80;;
45366;SDS011;31100;55.848;37.636;2023-06-10T12:25:49;3.25;;;1.13;;
45366;SDS011;31100;55.848;37.636;2023-06-10T12:28:16;1.88;;;0.88;;
45366;SDS011;31100;55.848;37.636;2023-06-10T12:30:42;3.03;;;0.80;;
45366;SDS011;31100;55.848;37.636;2023-06-10T12:33:15;3.38;;;1.13;;
45366;SDS011;31100;55.848;37.636;2023-06-10T12:35:49;1.42;;;0.80;;
45366;SDS011;31100;55.848;37.636;2023-06-10T12:38:20;5.45;;;0.80;;
45366;SDS011;31100;55.848;37.636;2023-06-10T12:40:46;3.55;;;1.00;;
45366;SDS011;31100;55.848;37.636;2023-06-10T12:43:12;3.72;;;0.90;;
45366;SDS011;31100;55.848;37.636;2023-06-10T12:45:39;3.20;;;0.90;;
45366;SDS011;31100;55.848;37.636;2023-06-10T12:50:37;4.13;;;1.35;;
45366;SDS011;31100;55.848;37.636;2023-06-10T12:53:04;1.90;;;0.80;;
45366;SDS011;31100;55.848;37.636;2023-06-10T12:55:30;4.20;;;0.93;;
45366;SDS011;31100;55.848;37.636;2023-06-10T12:57:56;3.92;;;0.90;;
45366;SDS011;31100;55.848;37.636;2023-06-10T13:00:22;1.92;;;0.80;;
45366;SDS011;31100;55.848;37.636;2023-06-10T13:02:50;3.78;;;0.90;;
45366;SDS011;31100;55.848;37.636;2023-06-10T13:05:19;3.38;;;0.90;;
45366;SDS011;31100;55.848;37.636;2023-06-10T13:07:46;4.25;;;1.10;;
45366;SDS011;31100;55.848;37.636;2023-06-10T13:10:12;3.63;;;1.15;;
45366;SDS011;31100;55.848;37.636;2023-06-10T13:12:38;3.45;;;1.20;;
45366;SDS011;31100;55.848;37.636;2023-06-10T13:15:04;5.55;;;1.40;;
45366;SDS011;31100;55.848;37.636;2023-06-10T13:17:30;2.72;;;0.90;;
45366;SDS011;31100;55.848;37.636;2023-06-10T13:19:56;6.07;;;2.08;;
45366;SDS011;31100;55.848;37.636;2023-06-10T13:22:21;3.10;;;1.02;;
45366;SDS011;31100;55.848;37.636;2023-06-10T13:24:49;5.88;;;1.60;;
45366;SDS011;31100;55.848;37.636;2023-06-10T13:27:14;2.83;;;0.90;;
45366;SDS011;31100;55.848;37.636;2023-06-10T13:29:40;5.93;;;1.10;;
45366;SDS011;31100;55.848;37.636;2023-06-10T13:32:06;1.85;;;0.85;;
45366;SDS011;31100;55.848;37.636;2023-06-10T13:34:32;2.55;;;0.90;;
45366;SDS011;31100;55.848;37.636;2023-06-10T13:36:57;5.28;;;1.00;;
45366;SDS011;31100;55.848;37.636;2023-06-10T13:39:23;4.18;;;1.33;;
45366;SDS011;31100;55.848;37.636;2023-06-10T13:41:52;3.80;;;1.00;;
45366;SDS011;31100;55.848;37.636;2023-06-10T13:44:17;6.05;;;1.08;;
45366;SDS011;31100;55.848;37.636;2023-06-10T13:46:43;4.32;;;1.00;;
45366;SDS011;31100;55.848;37.636;2023-06-10T13:49:08;4.55;;;1.20;;
45366;SDS011;31100;55.848;37.636;2023-06-10T13:51:34;1.83;;;0.73;;
45366;SDS011;31100;55.848;37.636;2023-06-10T13:54:00;3.47;;;0.85;;
45366;SDS011;31100;55.848;37.636;2023-06-10T13:56:25;1.95;;;0.90;;
45366;SDS011;31100;55.848;37.636;2023-06-10T13:58:51;2.17;;;0.95;;
45366;SDS011;31100;55.848;37.636;2023-06-10T14:01:16;3.67;;;1.20;;
45366;SDS011;31100;55.848;37.636;2023-06-10T14:03:42;3.08;;;1.10;;
45366;SDS011;31100;55.848;37.636;2023-06-10T14:06:07;4.22;;;1.15;;
45366;SDS011;31100;55.848;37.636;2023-06-10T14:08:33;2.47;;;1.10;;
45366;SDS011;31100;55.848;37.636;2023-06-10T14:10:58;3.78;;;1.05;;
45366;SDS011;31100;55.848;37.636;2023-06-10T14:13:24;4.45;;;1.00;;
45366;SDS011;31100;55.848;37.636;2023-06-10T14:16:07;3.33;;;1.20;;
45366;SDS011;31100;55.848;37.636;2023-06-10T14:18:33;3.20;;;1.10;;
45366;SDS011;31100;55.848;37.636;2023-06-10T14:20:58;2.97;;;0.88;;
45366;SDS011;31100;55.848;37.636;2023-06-10T14:23:24;2.08;;;0.98;;
45366;SDS011;31100;55.848;37.636;2023-06-10T14:25:50;5.28;;;0.85;;
45366;SDS011;31100;55.848;37.636;2023-06-10T14:28:16;3.85;;;1.10;;
45366;SDS011;31100;55.848;37.636;2023-06-10T14:30:41;3.90;;;1.00;;
45366;SDS011;31100;55.848;37.636;2023-06-10T14:33:07;3.05;;;1.00;;
45366;SDS011;31100;55.848;37.636;2023-06-10T14:35:32;7.35;;;0.90;;
45366;SDS011;31100;55.848;37.636;2023-06-10T14:37:58;2.65;;;1.20;;
45366;SDS011;31100;55.848;37.636;2023-06-10T14:40:23;4.72;;;1.10;;
45366;SDS011;31100;55.848;37.636;2023-06-10T14:42:51;1.77;;;0.80;;
45366;SDS011;31100;55.848;37.636;2023-06-10T14:45:17;3.60;;;1.00;;
45366;SDS011;31100;55.848;37.636;2023-06-10T14:47:42;4.35;;;1.20;;
45366;SDS011;31100;55.848;37.636;2023-06-10T14:50:08;3.40;;;1.00;;
45366;SDS011;31100;55.848;37.636;2023-06-10T14:52:34;3.50;;;1.00;;